Time;durP1;ratioP1;P1;durP2;ratioP2;P2;SDS_P1;SDS_P2;PMS_P1;PMS_P2;Temp;Humidity;BMP_temperature;BMP_pressure;BME280_temperature;BME280_humidity;BME280_pressure;Samples;Min_cycle;Max_cycle;Signal;HPM_P1;HPM_P2
2022/11/01 00:00:34;;;;;;;25.80;17.23;;;11.70;99.90;;;;;;5096987;28;20447;-74
2022/11/01 00:03:01;;;;;;;27.80;17.60;;;11.80;99.90;;;;;;5100155;28;20469;-75
2022/11/01 00:05:28;;;;;;;27.17;17.47;;;11.80;99.90;;;;;;5093197;28;20467;-74
2022/11/01 00:07:54;;;;;;;31.60;18.40;;;11.80;99.90;;;;;;5101090;28;20552;-74
2022/11/01 00:10:22;;;;;;;30.13;17.77;;;11.80;99.90;;;;;;5095929;28;20449;-74
2022/11/01 00:12:49;;;;;;;36.03;19.50;;;11.80;99.90;;;;;;5100032;28;20467;-74
2022/11/01 00:15:16;;;;;;;40.47;19.00;;;11.80;99.90;;;;;;5100084;28;20466;-74
2022/11/01 00:17:42;;;;;;;35.97;19.40;;;11.80;99.90;;;;;;5105411;28;20454;-74
2022/11/01 00:20:10;;;;;;;24.50;17.37;;;11.80;99.90;;;;;;5098457;27;20458;-74
2022/11/01 00:22:37;;;;;;;27.80;17.80;;;11.80;99.90;;;;;;5105900;28;20473;-75
2022/11/01 00:25:04;;;;;;;38.97;19.13;;;11.90;99.90;;;;;;5106296;28;20453;-74
2022/11/01 00:27:32;;;;;;;29.03;16.87;;;11.90;99.90;;;;;;5098768;28;20476;-75
2022/11/01 00:29:59;;;;;;;33.50;18.60;;;11.80;99.90;;;;;;5090922;28;20504;-74
2022/11/01 00:32:26;;;;;;;26.30;17.17;;;11.80;99.90;;;;;;5090514;28;20527;-74
2022/11/01 00:34:52;;;;;;;28.40;18.50;;;11.80;99.90;;;;;;5104156;28;20459;-74
2022/11/01 00:37:19;;;;;;;27.73;17.80;;;11.80;99.90;;;;;;5102802;28;20457;-74
2022/11/01 00:39:46;;;;;;;28.50;16.90;;;11.90;99.90;;;;;;5106911;28;20459;-74
2022/11/01 00:42:12;;;;;;;38.80;17.83;;;11.80;99.90;;;;;;5094428;28;20473;-74
2022/11/01 00:44:40;;;;;;;27.97;17.87;;;11.80;99.90;;;;;;5096428;28;20457;-74
2022/11/01 00:47:07;;;;;;;28.27;18.17;;;11.80;99.90;;;;;;5105516;28;20458;-74
2022/11/01 00:49:33;;;;;;;28.50;17.30;;;11.80;99.90;;;;;;5108867;28;20481;-74
2022/11/01 00:52:00;;;;;;;34.63;17.13;;;11.80;99.90;;;;;;5100591;28;20455;-74
2022/11/01 00:54:27;;;;;;;28.80;17.53;;;11.80;99.90;;;;;;5101800;27;20448;-74
2022/11/01 00:56:53;;;;;;;35.60;18.20;;;11.80;99.90;;;;;;5100615;28;20893;-74
2022/11/01 00:59:20;;;;;;;28.40;17.53;;;11.90;99.90;;;;;;5102869;28;20465;-74
2022/11/01 01:01:48;;;;;;;30.27;18.50;;;11.80;99.90;;;;;;5097905;28;20462;-75
2022/11/01 01:04:15;;;;;;;39.70;18.33;;;11.90;99.90;;;;;;5091670;28;20486;-74
2022/11/01 01:06:41;;;;;;;31.33;18.17;;;11.90;99.90;;;;;;5091382;28;20509;-75
2022/11/01 01:09:10;;;;;;;35.93;18.70;;;11.90;99.90;;;;;;5090829;28;20486;-74
2022/11/01 01:11:37;;;;;;;29.83;17.60;;;11.90;99.90;;;;;;5089656;28;20481;-74
2022/11/01 01:14:04;;;;;;;33.10;18.00;;;11.90;99.90;;;;;;5090199;28;20478;-75
2022/11/01 01:16:30;;;;;;;32.90;18.03;;;11.90;99.90;;;;;;5090408;28;20464;-75
2022/11/01 01:19:00;;;;;;;34.07;18.47;;;11.90;99.90;;;;;;5093386;28;20821;-74
2022/11/01 01:21:26;;;;;;;29.77;18.37;;;11.90;99.90;;;;;;5095651;28;20456;-75
2022/11/01 01:23:53;;;;;;;27.30;17.93;;;11.90;99.90;;;;;;5105414;28;20989;-75
2022/11/01 01:26:21;;;;;;;29.13;18.00;;;11.90;99.90;;;;;;5102204;28;20446;-75
2022/11/01 01:28:47;;;;;;;40.73;17.70;;;11.90;99.90;;;;;;5095161;28;20908;-75
2022/11/01 01:31:14;;;;;;;23.87;15.33;;;11.90;99.90;;;;;;5090010;28;20464;-74
2022/11/01 01:33:41;;;;;;;27.23;17.10;;;11.90;99.90;;;;;;5090212;28;20476;-75
2022/11/01 01:36:09;;;;;;;27.60;17.27;;;11.90;99.90;;;;;;5090457;28;20892;-75
2022/11/01 01:38:36;;;;;;;29.50;17.43;;;12.00;99.90;;;;;;5089864;28;20458;-75
2022/11/01 01:43:44;;;;;;;31.43;18.00;;;12.00;99.90;;;;;;5089924;28;20459;-74
2022/11/01 01:46:11;;;;;;;40.93;18.60;;;12.00;99.90;;;;;;5096124;28;20791;-74
2022/11/01 01:48:40;;;;;;;31.50;19.43;;;12.10;99.90;;;;;;5102067;28;20493;-75
2022/11/01 01:51:10;;;;;;;32.67;19.73;;;12.10;99.90;;;;;;5096395;28;20462;-75
2022/11/01 01:53:40;;;;;;;27.10;18.30;;;12.10;99.90;;;;;;5098024;28;20469;-74
2022/11/01 01:56:10;;;;;;;30.13;18.00;;;12.20;99.90;;;;;;5106760;28;20446;-74
2022/11/01 01:58:40;;;;;;;45.20;20.00;;;12.20;99.90;;;;;;5107890;28;20812;-75
2022/11/01 02:01:06;;;;;;;40.60;18.90;;;12.20;99.90;;;;;;5099877;28;20454;-75
2022/11/01 02:03:35;;;;;;;27.10;18.73;;;12.20;99.90;;;;;;5098296;28;20474;-75
2022/11/01 02:06:07;;;;;;;33.10;18.20;;;12.20;99.90;;;;;;5099497;28;20598;-75
2022/11/01 02:08:36;;;;;;;31.10;18.23;;;12.20;99.90;;;;;;5096631;28;20992;-75
2022/11/01 02:11:06;;;;;;;38.17;21.27;;;12.20;99.90;;;;;;5100565;28;20449;-75
2022/11/01 02:13:33;;;;;;;47.47;21.83;;;12.20;99.90;;;;;;5105633;28;20466;-75
2022/11/01 02:16:22;;;;;;;34.20;20.83;;;12.30;99.90;;;;;;5100512;28;20522;-75
2022/11/01 02:18:58;;;;;;;45.67;21.37;;;12.30;99.90;;;;;;5104534;28;20447;-75
2022/11/01 02:21:50;;;;;;;43.63;23.00;;;12.40;99.90;;;;;;5099931;28;20454;-75
2022/11/01 02:24:59;;;;;;;34.50;21.90;;;12.40;99.90;;;;;;5104423;28;20823;-75
2022/11/01 02:27:34;;;;;;;38.93;21.17;;;12.40;99.90;;;;;;5090552;28;20457;-75
2022/11/01 02:30:17;;;;;;;33.47;21.60;;;12.40;99.90;;;;;;5092301;28;20489;-74
2022/11/01 02:33:01;;;;;;;45.30;22.37;;;12.50;99.90;;;;;;5095033;28;20975;-75
2022/11/01 02:35:37;;;;;;;37.20;22.10;;;12.50;99.90;;;;;;5093690;28;20486;-75
2022/11/01 02:38:08;;;;;;;38.17;21.07;;;12.50;99.90;;;;;;5093090;28;20450;-75
2022/11/01 02:40:42;;;;;;;32.00;20.00;;;12.50;99.90;;;;;;5097686;28;20522;-75
2022/11/01 02:43:15;;;;;;;42.73;21.90;;;12.50;99.90;;;;;;5099541;28;20518;-75
2022/11/01 02:45:47;;;;;;;38.67;21.70;;;12.50;99.90;;;;;;5097905;28;20826;-75
2022/11/01 02:48:18;;;;;;;37.33;22.13;;;12.50;99.90;;;;;;5103007;28;20445;-75
2022/11/01 02:50:50;;;;;;;36.60;20.87;;;12.60;99.90;;;;;;5099671;28;20476;-75
2022/11/01 02:53:17;;;;;;;39.90;21.80;;;12.60;99.90;;;;;;5108226;27;20475;-75
2022/11/01 02:55:43;;;;;;;40.90;23.13;;;12.60;99.90;;;;;;5111832;27;20485;-75
2022/11/01 02:58:16;;;;;;;37.63;21.20;;;12.60;99.90;;;;;;5109838;28;20455;-75
2022/11/01 03:00:44;;;;;;;37.37;20.93;;;12.60;99.90;;;;;;5108550;28;20990;-75
2022/11/01 03:03:16;;;;;;;38.83;21.20;;;12.60;99.90;;;;;;5100807;28;20568;-75
2022/11/01 03:05:51;;;;;;;39.20;20.50;;;12.60;99.90;;;;;;5100477;28;20454;-75
2022/11/01 03:08:22;;;;;;;34.57;20.87;;;12.50;99.90;;;;;;5107864;28;20451;-75
2022/11/01 03:10:57;;;;;;;31.63;21.20;;;12.50;99.90;;;;;;5097743;28;20481;-75
2022/11/01 03:13:34;;;;;;;43.97;20.23;;;12.50;99.90;;;;;;5096118;28;20531;-75
2022/11/01 03:16:19;;;;;;;33.67;20.70;;;12.50;99.90;;;;;;5101512;28;20873;-75
2022/11/01 03:18:59;;;;;;;34.40;20.00;;;12.50;99.90;;;;;;5095890;28;20473;-75
2022/11/01 03:21:28;;;;;;;36.63;21.07;;;12.50;99.90;;;;;;5098625;28;20450;-75
2022/11/01 03:24:03;;;;;;;34.50;20.30;;;12.50;99.90;;;;;;5104182;28;20990;-75
2022/11/01 03:26:33;;;;;;;36.80;19.90;;;12.50;99.90;;;;;;5096049;28;20469;-75
2022/11/01 03:29:04;;;;;;;34.50;18.07;;;12.50;99.90;;;;;;5096806;28;20889;-75
2022/11/01 03:31:33;;;;;;;36.23;20.10;;;12.50;99.90;;;;;;5096041;28;20459;-75
2022/11/01 03:34:05;;;;;;;39.13;20.00;;;12.40;99.90;;;;;;5102240;28;20999;-75
2022/11/01 03:36:37;;;;;;;34.20;19.50;;;12.40;99.90;;;;;;5103599;28;20447;-75
2022/11/01 03:39:08;;;;;;;31.00;19.60;;;12.40;99.90;;;;;;5107097;28;20455;-75
2022/11/01 03:41:41;;;;;;;29.93;18.43;;;12.40;99.90;;;;;;5098774;28;20451;-75
2022/11/01 03:44:11;;;;;;;33.70;18.33;;;12.40;99.90;;;;;;5108541;28;20480;-75
2022/11/01 03:46:38;;;;;;;37.00;19.37;;;12.40;99.90;;;;;;5099308;28;20965;-75
2022/11/01 03:49:06;;;;;;;34.77;17.80;;;12.40;99.90;;;;;;5096470;28;20486;-75
2022/11/01 03:51:32;;;;;;;32.13;18.63;;;12.40;99.90;;;;;;5100888;28;20484;-75
2022/11/01 03:53:59;;;;;;;26.50;16.57;;;12.40;99.90;;;;;;5107541;27;20478;-75
2022/11/01 03:56:26;;;;;;;30.53;16.60;;;12.40;99.90;;;;;;5109843;28;20446;-75
2022/11/01 03:58:53;;;;;;;25.20;15.70;;;12.30;99.90;;;;;;5103814;28;20458;-75
2022/11/01 04:01:19;;;;;;;35.57;17.17;;;12.30;99.90;;;;;;5100827;28;20507;-75
2022/11/01 04:03:46;;;;;;;25.20;15.97;;;12.30;99.90;;;;;;5106782;28;20491;-75
2022/11/01 04:06:14;;;;;;;31.37;15.67;;;12.40;99.90;;;;;;5097048;28;20503;-74
2022/11/01 04:08:41;;;;;;;29.73;15.90;;;12.40;99.90;;;;;;5095010;28;20473;-74
2022/11/01 04:11:07;;;;;;;22.20;14.90;;;12.50;99.90;;;;;;5099413;28;20449;-74
2022/11/01 04:13:34;;;;;;;25.20;15.70;;;12.50;99.90;;;;;;5102508;28;20469;-75
2022/11/01 04:21:32;;;;;;;26.10;14.70;;;12.80;99.90;;;;;;5095940;28;20496;-75
2022/11/01 04:23:58;;;;;;;23.27;14.47;;;12.80;99.90;;;;;;5090738;28;20471;-75
2022/11/01 04:26:25;;;;;;;24.30;14.20;;;12.90;99.90;;;;;;5091394;28;21009;-75
2022/11/01 04:28:58;;;;;;;31.10;17.60;;;12.90;99.90;;;;;;5091410;28;20490;-75
2022/11/01 04:31:26;;;;;;;33.00;18.50;;;13.00;99.90;;;;;;5101323;28;20461;-74
2022/11/01 04:33:54;;;;;;;36.33;19.00;;;13.00;99.90;;;;;;5100459;28;20474;-74
2022/11/01 04:36:21;;;;;;;31.03;18.37;;;13.00;99.90;;;;;;5102531;28;20932;-74
2022/11/01 04:38:51;;;;;;;36.77;17.70;;;13.00;99.90;;;;;;5107783;28;20884;-74
2022/11/01 04:41:18;;;;;;;38.40;18.40;;;13.00;99.90;;;;;;5097818;28;20496;-74
2022/11/01 04:43:45;;;;;;;34.30;19.17;;;13.00;99.90;;;;;;5106666;28;20487;-73
2022/11/01 04:46:12;;;;;;;40.53;17.50;;;13.00;99.90;;;;;;5101047;28;20455;-73
2022/11/01 04:48:38;;;;;;;33.17;19.40;;;13.00;99.90;;;;;;5102901;28;20461;-75
2022/11/01 04:51:05;;;;;;;33.43;20.20;;;13.00;99.90;;;;;;5102415;28;20457;-74
2022/11/01 04:53:32;;;;;;;32.83;20.17;;;13.00;99.90;;;;;;5105727;27;20468;-74
2022/11/01 04:56:01;;;;;;;38.10;21.73;;;13.00;99.90;;;;;;5101088;27;20460;-74
2022/11/01 04:58:28;;;;;;;35.77;20.60;;;13.00;99.90;;;;;;5095693;28;20450;-74
2022/11/01 05:00:54;;;;;;;46.37;20.00;;;13.00;99.90;;;;;;5099033;28;20474;-74
2022/11/01 05:03:21;;;;;;;40.87;21.27;;;12.90;99.90;;;;;;5101503;28;20479;-74
2022/11/01 05:05:48;;;;;;;41.03;20.70;;;12.90;99.90;;;;;;5095198;28;20454;-74
2022/11/01 05:08:14;;;;;;;40.83;21.43;;;13.00;99.90;;;;;;5090393;28;20455;-74
2022/11/01 05:10:43;;;;;;;40.50;20.40;;;13.00;99.90;;;;;;5089923;28;20489;-74
2022/11/01 05:13:12;;;;;;;42.13;22.17;;;13.00;99.90;;;;;;5088996;28;20493;-74
2022/11/01 05:15:39;;;;;;;40.37;20.10;;;13.00;99.90;;;;;;5090973;28;20984;-74
2022/11/01 05:18:06;;;;;;;54.60;21.80;;;13.00;99.90;;;;;;5090276;28;20458;-74
2022/11/01 05:20:32;;;;;;;37.33;21.90;;;13.00;99.90;;;;;;5090659;28;20941;-74
2022/11/01 05:22:59;;;;;;;32.60;20.17;;;13.00;99.90;;;;;;5090750;28;20888;-74
2022/11/01 05:25:26;;;;;;;34.30;19.97;;;13.00;99.90;;;;;;5100294;28;20526;-74
2022/11/01 05:27:58;;;;;;;38.80;20.80;;;13.00;99.90;;;;;;5101669;28;20453;-74
2022/11/01 05:30:26;;;;;;;38.73;21.50;;;13.00;99.90;;;;;;5089862;28;20834;-74
2022/11/01 05:32:57;;;;;;;40.83;20.37;;;13.00;99.90;;;;;;5090209;28;20480;-74
2022/11/01 05:35:24;;;;;;;37.17;21.40;;;13.00;99.90;;;;;;5105043;28;20983;-74
2022/11/01 05:37:50;;;;;;;35.23;20.03;;;13.00;99.90;;;;;;5108197;28;20474;-74
2022/11/01 05:40:17;;;;;;;39.40;23.10;;;13.00;99.90;;;;;;5094630;28;20449;-74
2022/11/01 05:42:44;;;;;;;36.13;20.57;;;13.00;99.90;;;;;;5093286;28;20517;-74
2022/11/01 05:45:11;;;;;;;37.20;21.60;;;13.00;99.90;;;;;;5095790;28;20452;-74
2022/11/01 05:47:40;;;;;;;35.77;21.90;;;13.00;99.90;;;;;;5100506;28;20454;-74
2022/11/01 05:50:07;;;;;;;39.57;22.37;;;13.00;99.90;;;;;;5095651;28;20510;-74
2022/11/01 05:52:34;;;;;;;38.07;21.10;;;13.00;99.90;;;;;;5093375;28;20825;-74
2022/11/01 05:55:01;;;;;;;48.17;24.13;;;13.00;99.90;;;;;;5110033;28;20850;-74
2022/11/01 05:57:28;;;;;;;37.93;22.70;;;13.00;99.90;;;;;;5093444;28;20561;-74
2022/11/01 05:59:54;;;;;;;44.57;22.83;;;13.00;99.90;;;;;;5092997;28;20444;-75
2022/11/01 06:02:21;;;;;;;43.53;23.83;;;13.00;99.90;;;;;;5106415;28;21000;-74
2022/11/01 06:04:49;;;;;;;36.40;23.17;;;13.00;99.90;;;;;;5110609;28;20443;-74
2022/11/01 06:07:16;;;;;;;50.07;25.20;;;13.00;99.90;;;;;;5108018;28;20439;-75
2022/11/01 06:09:43;;;;;;;35.33;24.20;;;12.90;99.90;;;;;;5105321;28;21020;-75
2022/11/01 06:12:09;;;;;;;41.57;24.00;;;12.90;99.90;;;;;;5103785;28;20473;-74
2022/11/01 06:14:36;;;;;;;44.40;26.03;;;12.90;99.90;;;;;;5096934;28;20450;-74
2022/11/01 06:17:03;;;;;;;42.07;23.70;;;12.90;99.90;;;;;;5097878;28;20489;-75
2022/11/01 06:19:29;;;;;;;39.43;23.10;;;12.90;99.90;;;;;;5098261;28;20473;-75
2022/11/01 06:21:58;;;;;;;38.73;22.40;;;12.90;99.90;;;;;;5099429;28;20451;-75
2022/11/01 06:24:24;;;;;;;38.83;23.20;;;12.90;99.90;;;;;;5092359;28;20450;-75
2022/11/01 06:26:51;;;;;;;37.70;21.50;;;12.90;99.90;;;;;;5092563;28;20504;-74
2022/11/01 06:29:18;;;;;;;34.53;20.53;;;12.90;99.90;;;;;;5094165;28;20442;-75
2022/11/01 06:31:44;;;;;;;27.03;18.90;;;12.90;99.90;;;;;;5093510;28;20458;-75
2022/11/01 06:34:11;;;;;;;26.27;15.57;;;12.90;99.90;;;;;;5094237;28;20454;-74
2022/11/01 06:36:38;;;;;;;18.50;14.50;;;13.00;99.90;;;;;;5094012;28;20458;-75
2022/11/01 06:39:06;;;;;;;24.60;15.30;;;13.00;99.90;;;;;;5094780;28;20450;-74
2022/11/01 06:41:33;;;;;;;21.10;13.80;;;12.90;99.90;;;;;;5093629;28;20945;-75
2022/11/01 06:44:00;;;;;;;20.23;13.27;;;13.00;99.90;;;;;;5094148;28;20473;-75
2022/11/01 06:46:27;;;;;;;20.90;13.10;;;13.00;99.90;;;;;;5094292;28;20450;-75
2022/11/01 06:48:53;;;;;;;17.77;12.60;;;13.00;99.90;;;;;;5094176;28;20966;-75
2022/11/01 06:51:20;;;;;;;17.93;12.80;;;13.00;99.90;;;;;;5093896;28;20893;-75
2022/11/01 06:53:46;;;;;;;22.60;13.93;;;13.10;99.90;;;;;;5105143;27;20534;-74
2022/11/01 06:56:14;;;;;;;20.60;13.53;;;13.10;99.90;;;;;;5134836;27;20448;-75
2022/11/01 06:58:41;;;;;;;25.47;15.80;;;13.10;99.90;;;;;;5135142;27;20450;-75
2022/11/01 07:01:08;;;;;;;23.20;15.10;;;13.20;99.90;;;;;;5135060;27;20444;-76
2022/11/01 07:03:34;;;;;;;19.50;15.03;;;13.20;99.90;;;;;;5134900;27;20477;-76
2022/11/01 07:06:01;;;;;;;28.43;15.67;;;13.20;99.90;;;;;;5134892;27;20449;-76
2022/11/01 07:08:28;;;;;;;24.20;16.10;;;13.30;99.90;;;;;;5134712;27;20502;-76
2022/11/01 07:10:54;;;;;;;32.70;15.90;;;13.30;99.90;;;;;;5127113;27;20485;-76
2022/11/01 07:13:22;;;;;;;29.70;16.70;;;13.30;99.90;;;;;;5114027;28;20979;-76
2022/11/01 07:15:49;;;;;;;31.97;18.57;;;13.30;99.90;;;;;;5113980;28;20556;-76
2022/11/01 07:18:16;;;;;;;25.60;16.77;;;13.30;99.90;;;;;;5114164;28;20458;-76
2022/11/01 07:20:42;;;;;;;28.03;16.87;;;13.30;99.90;;;;;;5113662;28;20442;-76
2022/11/01 07:23:12;;;;;;;26.27;17.97;;;13.40;99.90;;;;;;5113768;28;20473;-76
2022/11/01 07:25:39;;;;;;;25.10;17.33;;;13.40;99.90;;;;;;5114032;28;20460;-76
2022/11/01 07:28:06;;;;;;;29.43;19.17;;;13.50;99.90;;;;;;5113957;28;20529;-76
2022/11/01 07:30:34;;;;;;;33.27;19.40;;;13.50;99.90;;;;;;5113451;28;20550;-76
2022/11/01 07:33:02;;;;;;;33.37;19.30;;;13.50;99.90;;;;;;5113771;28;20476;-76
2022/11/01 07:35:29;;;;;;;31.03;19.50;;;13.50;99.90;;;;;;5114126;28;20450;-76
2022/11/01 07:37:57;;;;;;;34.83;20.97;;;13.60;99.90;;;;;;5113530;28;20477;-76
2022/11/01 07:40:26;;;;;;;35.00;20.30;;;13.90;99.90;;;;;;5113702;28;20473;-77
2022/11/01 07:42:54;;;;;;;27.23;18.57;;;14.20;99.90;;;;;;5113414;28;20906;-76
2022/11/01 07:45:21;;;;;;;26.17;17.43;;;14.40;99.90;;;;;;5113590;28;20454;-76
2022/11/01 07:47:49;;;;;;;35.77;18.37;;;14.50;99.90;;;;;;5113553;28;20461;-76
2022/11/01 07:50:17;;;;;;;26.27;18.53;;;14.50;99.90;;;;;;5113118;28;20479;-76
2022/11/01 07:52:43;;;;;;;35.27;18.80;;;14.60;99.90;;;;;;5113504;28;20492;-76
2022/11/01 07:55:10;;;;;;;29.43;19.30;;;14.50;99.90;;;;;;5130752;27;20457;-76
2022/11/01 07:57:38;;;;;;;33.77;19.63;;;14.60;99.90;;;;;;5133700;27;20445;-76
2022/11/01 08:00:06;;;;;;;25.23;18.10;;;14.60;99.90;;;;;;5133718;27;20525;-75
2022/11/01 08:02:33;;;;;;;28.87;18.10;;;14.70;99.90;;;;;;5133211;27;20462;-74
2022/11/01 08:05:01;;;;;;;23.73;16.60;;;14.80;99.90;;;;;;5133769;27;20835;-75
2022/11/01 08:07:28;;;;;;;27.93;16.27;;;15.00;99.90;;;;;;5133686;27;20453;-74
2022/11/01 08:09:54;;;;;;;30.73;17.50;;;15.10;99.90;;;;;;5133956;27;20509;-74
2022/11/01 08:12:21;;;;;;;20.37;15.23;;;15.30;99.90;;;;;;5113702;27;20462;-75
2022/11/01 08:14:48;;;;;;;26.10;15.87;;;15.30;99.90;;;;;;5113034;28;20449;-74
2022/11/01 08:17:14;;;;;;;25.47;16.10;;;15.30;99.90;;;;;;5112656;28;20443;-75
2022/11/01 08:19:41;;;;;;;24.80;14.70;;;15.30;99.90;;;;;;5113140;28;20500;-74
2022/11/01 08:22:09;;;;;;;20.57;15.50;;;15.20;99.90;;;;;;5112582;28;20465;-74
2022/11/01 08:24:36;;;;;;;24.67;15.90;;;15.20;99.90;;;;;;5112925;28;20499;-74
2022/11/01 08:27:02;;;;;;;24.13;15.20;;;15.20;99.90;;;;;;5112130;28;20453;-74
2022/11/01 08:29:29;;;;;;;22.70;14.93;;;15.20;99.90;;;;;;5112725;28;20446;-74
2022/11/01 08:31:56;;;;;;;19.10;14.17;;;15.20;99.90;;;;;;5111965;28;20482;-74
2022/11/01 08:34:22;;;;;;;21.80;14.23;;;15.20;99.90;;;;;;5112662;28;20813;-74
2022/11/01 08:36:49;;;;;;;18.40;13.97;;;15.20;99.90;;;;;;5112526;28;20936;-74
2022/11/01 08:39:17;;;;;;;20.27;12.70;;;15.30;99.90;;;;;;5112478;28;20476;-75
2022/11/01 08:41:48;;;;;;;23.17;10.77;;;15.30;99.90;;;;;;5112330;28;20918;-74
2022/11/01 08:44:14;;;;;;;10.53;7.83;;;15.40;99.90;;;;;;5112253;28;20505;-74
2022/11/01 08:46:42;;;;;;;7.50;5.07;;;15.40;99.90;;;;;;5112444;28;20503;-75
2022/11/01 08:49:09;;;;;;;12.63;5.63;;;15.50;99.90;;;;;;5112436;27;20508;-75
2022/11/01 08:51:37;;;;;;;6.23;4.63;;;15.50;99.90;;;;;;5112044;28;20518;-74
2022/11/01 08:54:04;;;;;;;9.93;4.63;;;15.60;99.90;;;;;;5120084;27;20476;-74
2022/11/01 08:56:33;;;;;;;6.93;5.03;;;15.60;99.90;;;;;;5132687;27;20442;-74
2022/11/01 08:58:59;;;;;;;8.70;4.87;;;15.60;99.90;;;;;;5132529;27;20456;-74
2022/11/01 09:01:26;;;;;;;7.03;5.33;;;15.60;99.90;;;;;;5132695;27;20445;-74
2022/11/01 09:03:55;;;;;;;9.83;5.60;;;15.50;99.90;;;;;;5132416;27;20491;-74
2022/11/01 09:06:22;;;;;;;8.57;5.63;;;15.50;99.90;;;;;;5132651;27;21022;-74
2022/11/01 09:08:50;;;;;;;6.23;5.37;;;15.60;99.90;;;;;;5132608;27;20464;-74
2022/11/01 09:11:17;;;;;;;9.30;5.20;;;15.70;99.90;;;;;;5122026;27;20999;-74
2022/11/01 09:13:45;;;;;;;6.40;5.33;;;15.80;99.90;;;;;;5111750;28;20849;-74
2022/11/01 09:16:12;;;;;;;5.80;4.93;;;15.90;99.90;;;;;;5112298;28;20854;-74
2022/11/01 09:18:38;;;;;;;11.07;5.47;;;16.10;99.90;;;;;;5111805;28;20446;-74
2022/11/01 09:21:06;;;;;;;7.90;4.70;;;16.30;99.90;;;;;;5111916;28;20450;-74
2022/11/01 09:23:34;;;;;;;9.73;4.50;;;16.50;99.90;;;;;;5111831;28;20817;-74
2022/11/01 09:26:04;;;;;;;7.13;4.33;;;16.70;99.90;;;;;;5111764;28;20449;-75
2022/11/01 09:28:32;;;;;;;4.13;3.73;;;16.90;99.90;;;;;;5112084;28;20421;-75
2022/11/01 09:31:03;;;;;;;7.10;4.47;;;16.90;99.90;;;;;;5111636;28;20486;-74
2022/11/01 09:33:29;;;;;;;9.87;3.90;;;16.80;99.90;;;;;;5111940;28;20494;-74
2022/11/01 09:35:56;;;;;;;5.73;3.63;;;16.80;99.90;;;;;;5111894;28;20451;-75
2022/11/01 09:38:23;;;;;;;9.80;4.17;;;16.80;99.90;;;;;;5113517;28;20974;-75
2022/11/01 09:40:58;;;;;;;5.80;3.60;;;17.10;99.90;;;;;;5115609;28;20518;-74
2022/11/01 09:43:27;;;;;;;3.40;2.97;;;17.40;99.90;;;;;;5116135;28;20470;-74
2022/11/01 09:45:57;;;;;;;9.90;3.53;;;17.60;99.90;;;;;;5115962;28;20454;-74
2022/11/01 09:48:27;;;;;;;3.90;3.03;;;17.90;99.90;;;;;;5115796;28;20929;-74
2022/11/01 09:50:54;;;;;;;5.40;3.37;;;18.10;99.90;;;;;;5115447;28;20777;-74
2022/11/01 09:53:23;;;;;;;6.30;3.10;;;18.10;99.90;;;;;;5117650;27;20475;-74
2022/11/01 09:55:56;;;;;;;7.47;3.20;;;18.20;99.90;;;;;;5136312;27;20499;-74
2022/11/01 09:58:32;;;;;;;3.53;3.23;;;18.30;99.90;;;;;;5136367;27;20416;-74
2022/11/01 10:01:19;;;;;;;5.93;3.03;;;18.50;99.90;;;;;;5135854;27;20857;-75
2022/11/01 10:04:21;;;;;;;3.97;2.90;;;18.50;99.90;;;;;;5136229;27;20446;-75
2022/11/01 10:06:55;;;;;;;7.33;3.30;;;18.90;99.90;;;;;;5109921;27;20794;-73
2022/11/01 10:09:31;;;;;;;7.10;2.93;;;19.00;99.90;;;;;;5136007;27;20442;-74
2022/11/01 10:12:13;;;;;;;4.50;2.43;;;19.00;99.90;;;;;;5119281;27;20482;-75
2022/11/01 10:14:57;;;;;;;6.20;3.00;;;19.00;99.90;;;;;;5115468;28;20421;-74
2022/11/01 10:17:48;;;;;;;5.70;2.47;;;19.30;99.90;;;;;;5115517;28;20417;-74
2022/11/01 10:20:16;;;;;;;4.97;2.70;;;19.50;99.90;;;;;;5114880;28;20537;-74
2022/11/01 10:22:48;;;;;;;4.37;2.93;;;19.60;99.90;;;;;;5115181;28;20443;-74
2022/11/01 10:25:21;;;;;;;5.20;2.27;;;19.70;99.90;;;;;;5115427;28;20420;-74
2022/11/01 10:28:02;;;;;;;4.50;2.10;;;19.50;99.90;;;;;;5115296;28;20449;-75
2022/11/01 10:30:32;;;;;;;4.53;2.40;;;19.20;99.90;;;;;;5114541;28;20465;-74
2022/11/01 10:33:02;;;;;;;3.50;1.87;;;19.50;99.90;;;;;;5115137;28;20448;-75
2022/11/01 10:35:33;;;;;;;10.63;2.30;;;19.80;99.90;;;;;;5115054;27;20453;-74
2022/11/01 10:38:11;;;;;;;5.70;2.20;;;19.90;99.90;;;;;;5115071;28;20477;-74
2022/11/01 10:40:41;;;;;;;7.20;2.60;;;20.00;99.90;;;;;;5114548;28;20495;-75
2022/11/01 10:43:13;;;;;;;4.23;2.30;;;20.40;99.90;;;;;;5115122;28;20473;-75
2022/11/01 10:45:41;;;;;;;3.30;1.80;;;20.40;99.90;;;;;;5114878;28;20450;-75
2022/11/01 10:48:16;;;;;;;3.50;2.20;;;20.50;99.90;;;;;;5114756;28;20936;-74
2022/11/01 10:50:44;;;;;;;3.50;2.30;;;20.40;99.90;;;;;;5113655;28;20455;-75
2022/11/01 10:53:13;;;;;;;8.00;2.43;;;20.30;99.90;;;;;;5114954;28;20463;-74
2022/11/01 10:55:44;;;;;;;3.27;2.13;;;20.40;99.90;;;;;;5134830;27;20420;-75
2022/11/01 10:58:19;;;;;;;10.47;1.77;;;20.40;99.90;;;;;;5135323;27;20446;-74
2022/11/01 11:00:46;;;;;;;4.40;2.40;;;20.50;99.90;;;;;;5134887;27;20445;-75
2022/11/01 11:03:19;;;;;;;2.90;1.90;;;20.80;99.90;;;;;;5134770;27;20447;-75
2022/11/01 11:05:46;;;;;;;2.43;2.07;;;20.80;99.90;;;;;;5134973;27;20416;-74
2022/11/01 11:08:17;;;;;;;6.97;2.20;;;20.90;99.90;;;;;;5134521;27;20450;-74
2022/11/01 11:10:45;;;;;;;6.70;1.90;;;20.60;99.90;;;;;;5128776;27;20846;-74
2022/11/01 11:13:16;;;;;;;2.43;1.80;;;20.50;99.90;;;;;;5114256;28;20441;-74
2022/11/01 11:15:47;;;;;;;2.90;2.00;;;20.60;99.90;;;;;;5114064;28;20447;-74
2022/11/01 11:18:22;;;;;;;3.80;2.20;;;20.80;99.90;;;;;;5114090;28;20503;-74
2022/11/01 11:20:52;;;;;;;3.13;1.60;;;21.00;99.90;;;;;;5113537;28;20442;-74
2022/11/01 11:23:22;;;;;;;4.07;1.80;;;21.30;99.90;;;;;;5114025;28;20501;-74
2022/11/01 11:25:50;;;;;;;4.40;1.60;;;21.60;99.90;;;;;;5113892;28;20450;-74
2022/11/01 11:28:25;;;;;;;1.93;1.40;;;21.70;99.90;;;;;;5113999;28;20451;-74
2022/11/01 11:30:52;;;;;;;5.30;1.90;;;21.60;99.90;;;;;;5113405;28;20490;-74
2022/11/01 11:33:19;;;;;;;3.83;1.23;;;21.40;99.90;;;;;;5113945;28;20492;-74
2022/11/01 11:35:55;;;;;;;2.40;1.20;;;20.80;99.90;;;;;;5114111;28;20561;-74
2022/11/01 11:38:40;;;;;;;2.80;1.33;;;20.50;99.90;;;;;;5113791;28;20449;-74
2022/11/01 11:41:10;;;;;;;3.63;1.60;;;20.30;99.90;;;;;;5113513;28;20450;-74
2022/11/01 11:43:40;;;;;;;3.23;1.17;;;20.40;99.90;;;;;;5113313;28;20833;-75
2022/11/01 11:46:13;;;;;;;3.73;1.27;;;20.50;99.90;;;;;;5113586;28;21016;-74
2022/11/01 11:48:47;;;;;;;1.50;1.13;;;20.60;99.90;;;;;;5113683;27;20459;-74
2022/11/01 11:51:14;;;;;;;2.70;1.40;;;20.60;99.90;;;;;;5113184;28;20483;-74
2022/11/01 11:53:42;;;;;;;1.97;1.17;;;20.60;99.90;;;;;;5117960;27;20461;-74
2022/11/01 11:56:11;;;;;;;5.00;1.40;;;20.70;99.90;;;;;;5133705;27;20449;-74
2022/11/01 11:58:42;;;;;;;1.97;1.13;;;20.90;99.90;;;;;;5134242;27;20452;-74
2022/11/01 12:01:11;;;;;;;1.30;1.10;;;21.20;99.90;;;;;;5133002;27;20502;-74
2022/11/01 12:03:46;;;;;;;5.10;1.30;;;21.10;99.90;;;;;;5133655;27;20466;-74
2022/11/01 12:06:18;;;;;;;3.73;1.20;;;21.00;99.90;;;;;;5133829;27;20448;-74
2022/11/01 12:08:48;;;;;;;1.53;1.20;;;21.30;99.90;;;;;;5133675;27;20449;-74
2022/11/01 12:11:16;;;;;;;2.13;0.97;;;21.20;99.90;;;;;;5123235;27;21056;-75
2022/11/01 12:13:44;;;;;;;3.10;1.00;;;21.00;97.80;;;;;;5113108;28;20519;-74
2022/11/01 12:16:20;;;;;;;1.53;0.93;;;20.70;98.30;;;;;;5113047;28;20442;-76
2022/11/01 12:18:49;;;;;;;2.83;1.20;;;20.50;95.90;;;;;;5112783;28;20454;-74
2022/11/01 12:21:19;;;;;;;6.10;1.00;;;20.40;97.40;;;;;;5112384;28;20450;-74
2022/11/01 12:23:50;;;;;;;1.97;1.17;;;20.30;97.60;;;;;;5112694;28;20475;-75
2022/11/01 12:26:19;;;;;;;1.40;1.10;;;20.20;95.70;;;;;;5112783;28;20446;-74
2022/11/01 12:28:51;;;;;;;1.67;1.10;;;20.20;95.90;;;;;;5112748;28;20442;-74
2022/11/01 12:31:20;;;;;;;1.20;1.07;;;20.30;96.90;;;;;;5112411;28;20486;-74
2022/11/01 12:34:02;;;;;;;3.47;1.57;;;20.40;95.80;;;;;;5150691;27;20521;-75
2022/11/01 12:36:32;;;;;;;1.37;1.17;;;20.40;96.60;;;;;;5150521;27;20441;-74
2022/11/01 12:39:07;;;;;;;1.50;1.10;;;20.30;95.10;;;;;;5150871;27;20423;-74
2022/11/01 12:41:38;;;;;;;1.40;1.27;;;20.20;95.30;;;;;;5150131;27;20444;-74
2022/11/01 12:44:19;;;;;;;1.73;1.20;;;20.50;96.10;;;;;;5150188;27;20469;-75
2022/11/01 12:46:51;;;;;;;1.17;1.03;;;20.20;93.20;;;;;;5150605;27;20516;-75
2022/11/01 12:49:26;;;;;;;3.80;1.10;;;20.00;93.70;;;;;;5150453;27;20449;-75
2022/11/01 12:51:56;;;;;;;1.87;1.33;;;20.10;94.10;;;;;;5149932;27;20487;-75